AAL1566 KCHS-KCLT
Flight info
| Callsign | AAL1566 |
|---|---|
| Flight time | 0h 34m |
| Altitude | 20000 |
| Route | SWPFX3 FILLI FLLGG STOCR4 |
| Aircraft | A321/M-SDE3FGHIRWY/LB1 |
Departure
| Time | 2026-05-08 19:35 |
|---|---|
| Airport | Charleston International Airport (KCHS) |
Arrival
| Time | 2026-05-08 20:10 |
|---|---|
| Airport | Charlotte Douglas International Airport (KCLT) |
| Time | Latitude | Longitude | Altitude | Speed | Heading |
|---|---|---|---|---|---|
| 2026-05-08 19:13 | 32.88656 | -80.03770 | 38 ft | 0 kts | 194° |
| 2026-05-08 19:22 | 32.88664 | -80.03767 | 38 ft | 2 kts | 194° |
| 2026-05-08 19:22 | 32.88679 | -80.03763 | 38 ft | 2 kts | 194° |
| 2026-05-08 19:22 | 32.88692 | -80.03759 | 38 ft | 1 kts | 194° |
| 2026-05-08 19:22 | 32.88703 | -80.03756 | 39 ft | 2 kts | 180° |
| 2026-05-08 19:23 | 32.88717 | -80.03760 | 39 ft | 2 kts | 152° |
| 2026-05-08 19:23 | 32.88730 | -80.03771 | 39 ft | 2 kts | 126° |
| 2026-05-08 19:23 | 32.88736 | -80.03787 | 39 ft | 2 kts | 100° |
| 2026-05-08 19:23 | 32.88736 | -80.03805 | 39 ft | 2 kts | 74° |
| 2026-05-08 19:24 | 32.88733 | -80.03813 | 39 ft | 1 kts | 61° |
| 2026-05-08 19:24 | 32.88731 | -80.03818 | 39 ft | 0 kts | 65° |
| 2026-05-08 19:26 | 32.88732 | -80.03817 | 39 ft | 0 kts | 64° |
| 2026-05-08 19:27 | 32.88734 | -80.03810 | 39 ft | 1 kts | 64° |
| 2026-05-08 19:27 | 32.88752 | -80.03745 | 39 ft | 13 kts | 79° |
| 2026-05-08 19:27 | 32.88777 | -80.03642 | 40 ft | 10 kts | 41° |
| 2026-05-08 19:27 | 32.88852 | -80.03625 | 40 ft | 11 kts | 7° |
| 2026-05-08 19:28 | 32.88953 | -80.03608 | 42 ft | 19 kts | 8° |
| 2026-05-08 19:28 | 32.89097 | -80.03595 | 46 ft | 20 kts | 2° |
| 2026-05-08 19:28 | 32.89233 | -80.03590 | 49 ft | 18 kts | 0° |
| 2026-05-08 19:28 | 32.89359 | -80.03587 | 52 ft | 17 kts | 2° |
| 2026-05-08 19:29 | 32.89499 | -80.03580 | 55 ft | 25 kts | 3° |
| 2026-05-08 19:29 | 32.89629 | -80.03603 | 57 ft | 15 kts | 304° |
| 2026-05-08 19:29 | 32.89651 | -80.03732 | 57 ft | 16 kts | 276° |
| 2026-05-08 19:29 | 32.89663 | -80.03871 | 57 ft | 16 kts | 276° |
| 2026-05-08 19:30 | 32.89675 | -80.04012 | 57 ft | 18 kts | 276° |
| 2026-05-08 19:30 | 32.89688 | -80.04175 | 57 ft | 19 kts | 275° |
| 2026-05-08 19:30 | 32.89708 | -80.04335 | 57 ft | 19 kts | 278° |
| 2026-05-08 19:30 | 32.89737 | -80.04446 | 57 ft | 6 kts | 359° |
| 2026-05-08 19:31 | 32.89806 | -80.04441 | 57 ft | 14 kts | 359° |
| 2026-05-08 19:31 | 32.89942 | -80.04443 | 57 ft | 22 kts | 360° |
| 2026-05-08 19:31 | 32.90094 | -80.04441 | 57 ft | 21 kts | 1° |
| 2026-05-08 19:31 | 32.90243 | -80.04435 | 57 ft | 21 kts | 1° |
| 2026-05-08 19:32 | 32.90389 | -80.04431 | 57 ft | 20 kts | 352° |
| 2026-05-08 19:32 | 32.90512 | -80.04512 | 57 ft | 20 kts | 328° |
| 2026-05-08 19:32 | 32.90629 | -80.04598 | 57 ft | 19 kts | 327° |
| 2026-05-08 19:32 | 32.90754 | -80.04693 | 57 ft | 25 kts | 328° |
| 2026-05-08 19:33 | 32.90902 | -80.04807 | 57 ft | 24 kts | 324° |
| 2026-05-08 19:33 | 32.91041 | -80.04909 | 59 ft | 22 kts | 327° |
| 2026-05-08 19:33 | 32.91150 | -80.04994 | 60 ft | 15 kts | 343° |
| 2026-05-08 19:33 | 32.91231 | -80.04926 | 59 ft | 15 kts | 57° |
| 2026-05-08 19:34 | 32.91288 | -80.04819 | 59 ft | 8 kts | 60° |
| 2026-05-08 19:34 | 32.91279 | -80.04788 | 59 ft | 0 kts | 149° |
| 2026-05-08 19:34 | 32.91227 | -80.04751 | 58 ft | 35 kts | 148° |
| 2026-05-08 19:34 | 32.90741 | -80.04381 | 57 ft | 127 kts | 147° |
| 2026-05-08 19:35 | 32.89805 | -80.03661 | 279 ft | 181 kts | 146° |
| 2026-05-08 19:35 | 32.88850 | -80.02760 | 1291 ft | 173 kts | 124° |
| 2026-05-08 19:35 | 32.88584 | -80.01453 | 1976 ft | 168 kts | 81° |
| 2026-05-08 19:35 | 32.89104 | -80.00166 | 2355 ft | 183 kts | 52° |
| 2026-05-08 19:36 | 32.89937 | -79.98948 | 2738 ft | 199 kts | 51° |
| 2026-05-08 19:36 | 32.90833 | -79.97594 | 3129 ft | 216 kts | 51° |
| 2026-05-08 19:36 | 32.91791 | -79.96106 | 3438 ft | 239 kts | 52° |
| 2026-05-08 19:36 | 32.92807 | -79.94516 | 4021 ft | 249 kts | 48° |
| 2026-05-08 19:37 | 32.94179 | -79.93287 | 4734 ft | 248 kts | 17° |
| 2026-05-08 19:37 | 32.95879 | -79.93019 | 5291 ft | 255 kts | 354° |
| 2026-05-08 19:37 | 32.97712 | -79.93142 | 5816 ft | 269 kts | 353° |
| 2026-05-08 19:37 | 32.99585 | -79.93251 | 6558 ft | 274 kts | 353° |
| 2026-05-08 19:38 | 33.01500 | -79.93349 | 7363 ft | 275 kts | 353° |
| 2026-05-08 19:38 | 33.03395 | -79.93436 | 8129 ft | 278 kts | 352° |
| 2026-05-08 19:38 | 33.05325 | -79.93519 | 8908 ft | 279 kts | 351° |
| 2026-05-08 19:38 | 33.07258 | -79.93599 | 9657 ft | 281 kts | 350° |
| 2026-05-08 19:39 | 33.09217 | -79.93683 | 10336 ft | 285 kts | 349° |
| 2026-05-08 19:39 | 33.11265 | -79.93780 | 10733 ft | 300 kts | 350° |
| 2026-05-08 19:39 | 33.13421 | -79.93881 | 11057 ft | 317 kts | 350° |
| 2026-05-08 19:39 | 33.15635 | -79.93973 | 11593 ft | 325 kts | 350° |
| 2026-05-08 19:40 | 33.17906 | -79.94061 | 12292 ft | 327 kts | 350° |
| 2026-05-08 19:40 | 33.20187 | -79.94122 | 12941 ft | 332 kts | 352° |
| 2026-05-08 19:40 | 33.22524 | -79.93945 | 13583 ft | 340 kts | 358° |
| 2026-05-08 19:40 | 33.24858 | -79.93475 | 14192 ft | 348 kts | 4° |
| 2026-05-08 19:41 | 33.27235 | -79.92833 | 14800 ft | 352 kts | 5° |
| 2026-05-08 19:41 | 33.29657 | -79.92146 | 15376 ft | 357 kts | 5° |
| 2026-05-08 19:41 | 33.32069 | -79.91463 | 15943 ft | 360 kts | 5° |
| 2026-05-08 19:41 | 33.34507 | -79.90776 | 16501 ft | 363 kts | 4° |
| 2026-05-08 19:42 | 33.36989 | -79.90083 | 17063 ft | 367 kts | 4° |
| 2026-05-08 19:42 | 33.39469 | -79.89394 | 17648 ft | 369 kts | 4° |
| 2026-05-08 19:42 | 33.41985 | -79.88699 | 18193 ft | 372 kts | 3° |
| 2026-05-08 19:42 | 33.44499 | -79.88004 | 18702 ft | 375 kts | 3° |
| 2026-05-08 19:43 | 33.47081 | -79.87292 | 19189 ft | 380 kts | 3° |
| 2026-05-08 19:43 | 33.49661 | -79.86580 | 19660 ft | 384 kts | 3° |
| 2026-05-08 19:43 | 33.52252 | -79.85863 | 19982 ft | 387 kts | 3° |
| 2026-05-08 19:43 | 33.54865 | -79.85133 | 20027 ft | 385 kts | 3° |
| 2026-05-08 19:44 | 33.57478 | -79.84406 | 20038 ft | 385 kts | 3° |
| 2026-05-08 19:44 | 33.60094 | -79.83679 | 20037 ft | 384 kts | 3° |
| 2026-05-08 19:44 | 33.62690 | -79.82957 | 20040 ft | 385 kts | 3° |
| 2026-05-08 19:44 | 33.65315 | -79.82229 | 20043 ft | 385 kts | 3° |
| 2026-05-08 19:45 | 33.67934 | -79.81499 | 20045 ft | 385 kts | 2° |
| 2026-05-08 19:45 | 33.70536 | -79.80770 | 20049 ft | 386 kts | 2° |
| 2026-05-08 19:45 | 33.73158 | -79.80039 | 20050 ft | 385 kts | 3° |
| 2026-05-08 19:45 | 33.75760 | -79.79314 | 20046 ft | 386 kts | 3° |
| 2026-05-08 19:46 | 33.78391 | -79.78581 | 20048 ft | 385 kts | 3° |
| 2026-05-08 19:46 | 33.80981 | -79.77863 | 20046 ft | 383 kts | 1° |
| 2026-05-08 19:46 | 33.85905 | -79.78503 | 20041 ft | 340 kts | 324° |
| 2026-05-08 19:47 | 33.87809 | -79.80068 | 20046 ft | 327 kts | 309° |
| 2026-05-08 19:47 | 33.89297 | -79.82101 | 20050 ft | 323 kts | 303° |
| 2026-05-08 19:47 | 33.90717 | -79.84174 | 20045 ft | 323 kts | 303° |
| 2026-05-08 19:47 | 33.92144 | -79.86262 | 20044 ft | 321 kts | 303° |
| 2026-05-08 19:48 | 33.93549 | -79.88319 | 20045 ft | 322 kts | 303° |
| 2026-05-08 19:48 | 33.94986 | -79.90421 | 20046 ft | 322 kts | 302° |
| 2026-05-08 19:48 | 33.96403 | -79.92498 | 20045 ft | 322 kts | 303° |
| 2026-05-08 19:48 | 33.97819 | -79.94574 | 20044 ft | 322 kts | 303° |
| 2026-05-08 19:49 | 33.99355 | -79.96556 | 20043 ft | 326 kts | 309° |
| 2026-05-08 19:49 | 34.01121 | -79.98328 | 20042 ft | 331 kts | 316° |
| 2026-05-08 19:49 | 34.03086 | -79.99850 | 20044 ft | 340 kts | 322° |
| 2026-05-08 19:49 | 34.05177 | -80.01151 | 20044 ft | 340 kts | 324° |
| 2026-05-08 19:50 | 34.07307 | -80.02416 | 20047 ft | 340 kts | 325° |
| 2026-05-08 19:50 | 34.09438 | -80.03670 | 20042 ft | 342 kts | 324° |
| 2026-05-08 19:50 | 34.11578 | -80.04929 | 20045 ft | 341 kts | 325° |
| 2026-05-08 19:50 | 34.13720 | -80.06192 | 20042 ft | 340 kts | 324° |
| 2026-05-08 19:51 | 34.15860 | -80.07453 | 20045 ft | 341 kts | 325° |
| 2026-05-08 19:51 | 34.17967 | -80.08698 | 20043 ft | 341 kts | 325° |
| 2026-05-08 19:51 | 34.20112 | -80.09965 | 20043 ft | 341 kts | 324° |
| 2026-05-08 19:51 | 34.22235 | -80.11219 | 20039 ft | 342 kts | 324° |
| 2026-05-08 19:52 | 34.24395 | -80.12495 | 20039 ft | 341 kts | 324° |
| 2026-05-08 19:52 | 34.26505 | -80.13745 | 20042 ft | 340 kts | 324° |
| 2026-05-08 19:52 | 34.28635 | -80.15004 | 20042 ft | 340 kts | 325° |
| 2026-05-08 19:52 | 34.30751 | -80.16258 | 20042 ft | 340 kts | 324° |
| 2026-05-08 19:53 | 34.32879 | -80.17520 | 20042 ft | 341 kts | 324° |
| 2026-05-08 19:53 | 34.35016 | -80.18788 | 19897 ft | 342 kts | 325° |
| 2026-05-08 19:53 | 34.37149 | -80.20060 | 19164 ft | 345 kts | 326° |
| 2026-05-08 19:53 | 34.39266 | -80.21310 | 18499 ft | 337 kts | 326° |
| 2026-05-08 19:54 | 34.41385 | -80.22575 | 17825 ft | 338 kts | 326° |
| 2026-05-08 19:54 | 34.43482 | -80.23817 | 17374 ft | 335 kts | 326° |
| 2026-05-08 19:54 | 34.45561 | -80.25051 | 16984 ft | 330 kts | 326° |
| 2026-05-08 19:54 | 34.47606 | -80.26267 | 16590 ft | 327 kts | 327° |
| 2026-05-08 19:55 | 34.49642 | -80.27478 | 16140 ft | 325 kts | 327° |
| 2026-05-08 19:55 | 34.51663 | -80.28685 | 15660 ft | 324 kts | 327° |
| 2026-05-08 19:55 | 34.53675 | -80.29885 | 15196 ft | 323 kts | 327° |
| 2026-05-08 19:55 | 34.55690 | -80.31087 | 14728 ft | 322 kts | 328° |
| 2026-05-08 19:56 | 34.57681 | -80.32275 | 14270 ft | 321 kts | 328° |
| 2026-05-08 19:56 | 34.59645 | -80.33531 | 13891 ft | 315 kts | 324° |
| 2026-05-08 19:56 | 34.61463 | -80.34956 | 13586 ft | 306 kts | 320° |
| 2026-05-08 19:56 | 34.63141 | -80.36508 | 13252 ft | 301 kts | 317° |
| 2026-05-08 19:57 | 34.64778 | -80.38076 | 12868 ft | 299 kts | 317° |
| 2026-05-08 19:57 | 34.66387 | -80.39625 | 12541 ft | 294 kts | 317° |
| 2026-05-08 19:57 | 34.67983 | -80.41161 | 12278 ft | 288 kts | 317° |
| 2026-05-08 19:57 | 34.69537 | -80.42666 | 11983 ft | 283 kts | 317° |
| 2026-05-08 19:58 | 34.71040 | -80.44139 | 11694 ft | 279 kts | 316° |
| 2026-05-08 19:58 | 34.72548 | -80.45618 | 11404 ft | 275 kts | 316° |
| 2026-05-08 19:58 | 34.74010 | -80.47057 | 11117 ft | 271 kts | 317° |
| 2026-05-08 19:58 | 34.75474 | -80.48496 | 10793 ft | 269 kts | 317° |
| 2026-05-08 19:59 | 34.76926 | -80.49926 | 10428 ft | 268 kts | 317° |
| 2026-05-08 19:59 | 34.78365 | -80.51341 | 10073 ft | 267 kts | 317° |
| 2026-05-08 19:59 | 34.79822 | -80.52773 | 9712 ft | 267 kts | 317° |
| 2026-05-08 19:59 | 34.81249 | -80.54176 | 9354 ft | 267 kts | 317° |
| 2026-05-08 20:00 | 34.82695 | -80.55606 | 9000 ft | 266 kts | 318° |
| 2026-05-08 20:00 | 34.84135 | -80.57030 | 8614 ft | 267 kts | 318° |
| 2026-05-08 20:00 | 34.85565 | -80.58443 | 8239 ft | 267 kts | 318° |
| 2026-05-08 20:00 | 34.86987 | -80.59854 | 7917 ft | 264 kts | 317° |
| 2026-05-08 20:01 | 34.88123 | -80.61597 | 7772 ft | 262 kts | 294° |
| 2026-05-08 20:01 | 34.88798 | -80.63641 | 7656 ft | 263 kts | 289° |
| 2026-05-08 20:01 | 34.89425 | -80.65747 | 7528 ft | 262 kts | 289° |
| 2026-05-08 20:01 | 34.90065 | -80.67829 | 7407 ft | 264 kts | 290° |
| 2026-05-08 20:02 | 34.90728 | -80.69907 | 7257 ft | 263 kts | 291° |
| 2026-05-08 20:02 | 34.91409 | -80.71982 | 7087 ft | 263 kts | 291° |
| 2026-05-08 20:02 | 34.92091 | -80.74025 | 6855 ft | 258 kts | 291° |
| 2026-05-08 20:02 | 34.92760 | -80.76018 | 6589 ft | 252 kts | 291° |
| 2026-05-08 20:03 | 34.93417 | -80.77963 | 6263 ft | 244 kts | 291° |
| 2026-05-08 20:03 | 34.94065 | -80.79880 | 5956 ft | 244 kts | 291° |
| 2026-05-08 20:03 | 34.94709 | -80.81785 | 5633 ft | 247 kts | 291° |
| 2026-05-08 20:03 | 34.95370 | -80.83739 | 5306 ft | 251 kts | 291° |
| 2026-05-08 20:04 | 34.96016 | -80.85654 | 5217 ft | 239 kts | 291° |
| 2026-05-08 20:04 | 34.96635 | -80.87485 | 5242 ft | 222 kts | 291° |
| 2026-05-08 20:04 | 34.97202 | -80.89158 | 5209 ft | 206 kts | 291° |
| 2026-05-08 20:04 | 34.97842 | -80.90633 | 5056 ft | 196 kts | 311° |
| 2026-05-08 20:05 | 34.99002 | -80.91456 | 4825 ft | 191 kts | 341° |
| 2026-05-08 20:05 | 35.00298 | -80.91746 | 4527 ft | 190 kts | 353° |
| 2026-05-08 20:05 | 35.01613 | -80.91864 | 4236 ft | 188 kts | 356° |
| 2026-05-08 20:05 | 35.02913 | -80.91950 | 3961 ft | 185 kts | 356° |
| 2026-05-08 20:06 | 35.04179 | -80.92040 | 3717 ft | 180 kts | 356° |
| 2026-05-08 20:06 | 35.05396 | -80.92138 | 3509 ft | 171 kts | 355° |
| 2026-05-08 20:06 | 35.06562 | -80.92237 | 3277 ft | 165 kts | 355° |
| 2026-05-08 20:06 | 35.07707 | -80.92338 | 3068 ft | 164 kts | 356° |
| 2026-05-08 20:07 | 35.08852 | -80.92439 | 2859 ft | 164 kts | 355° |
| 2026-05-08 20:07 | 35.09978 | -80.92538 | 2650 ft | 163 kts | 355° |
| 2026-05-08 20:07 | 35.11122 | -80.92638 | 2436 ft | 161 kts | 355° |
| 2026-05-08 20:07 | 35.12242 | -80.92735 | 2228 ft | 161 kts | 355° |
| 2026-05-08 20:08 | 35.13353 | -80.92831 | 2018 ft | 161 kts | 355° |
| 2026-05-08 20:08 | 35.14479 | -80.92928 | 1804 ft | 160 kts | 355° |
| 2026-05-08 20:08 | 35.15583 | -80.93023 | 1595 ft | 159 kts | 355° |
| 2026-05-08 20:08 | 35.16693 | -80.93118 | 1386 ft | 158 kts | 355° |
| 2026-05-08 20:09 | 35.17777 | -80.93211 | 1186 ft | 157 kts | 355° |
| 2026-05-08 20:09 | 35.18875 | -80.93307 | 980 ft | 156 kts | 355° |
| 2026-05-08 20:09 | 35.19955 | -80.93400 | 779 ft | 155 kts | 355° |
| 2026-05-08 20:09 | 35.20980 | -80.93491 | 722 ft | 131 kts | 356° |
| 2026-05-08 20:10 | 35.21593 | -80.93546 | 733 ft | 42 kts | 356° |
| 2026-05-08 20:10 | 35.21733 | -80.93581 | 735 ft | 6 kts | 279° |
| 2026-05-08 20:10 | 35.21709 | -80.93623 | 734 ft | 7 kts | 205° |
| 2026-05-08 20:10 | 35.21670 | -80.93672 | 732 ft | 9 kts | 230° |
| 2026-05-08 20:11 | 35.21625 | -80.93740 | 731 ft | 10 kts | 249° |
| 2026-05-08 20:11 | 35.21661 | -80.93803 | 730 ft | 9 kts | 316° |
| 2026-05-08 20:11 | 35.21707 | -80.93870 | 729 ft | 10 kts | 304° |
| 2026-05-08 20:11 | 35.21760 | -80.93930 | 729 ft | 7 kts | 323° |
| 2026-05-08 20:12 | 35.21791 | -80.93964 | 729 ft | 5 kts | 319° |
| 2026-05-08 20:12 | 35.21804 | -80.94009 | 728 ft | 7 kts | 248° |
| 2026-05-08 20:12 | 35.21767 | -80.94068 | 727 ft | 10 kts | 229° |
| 2026-05-08 20:12 | 35.21711 | -80.94140 | 724 ft | 12 kts | 227° |
| 2026-05-08 20:13 | 35.21672 | -80.94231 | 722 ft | 11 kts | 272° |
| 2026-05-08 20:13 | 35.21679 | -80.94319 | 720 ft | 9 kts | 282° |
| 2026-05-08 20:13 | 35.21713 | -80.94374 | 720 ft | 8 kts | 343° |
| 2026-05-08 20:13 | 35.21767 | -80.94389 | 721 ft | 7 kts | 351° |
| 2026-05-08 20:14 | 35.21812 | -80.94410 | 722 ft | 5 kts | 311° |
| 2026-05-08 20:14 | 35.21825 | -80.94451 | 723 ft | 5 kts | 287° |
| 2026-05-08 20:14 | 35.21829 | -80.94466 | 723 ft | 0 kts | 287° |
| 2026-05-08 20:14 | 35.21829 | -80.94468 | 723 ft | 0 kts | 287° |